createdAt,value
2023-01-13T00:00:55.597Z,0.30
2023-01-13T00:03:23.884Z,0.40
2023-01-13T00:05:52.570Z,0.30
2023-01-13T00:08:20.907Z,0.30
2023-01-13T00:10:49.300Z,0.30
2023-01-13T00:13:17.692Z,0.30
2023-01-13T00:15:46.033Z,0.30
2023-01-13T00:18:15.791Z,0.27
2023-01-13T00:20:44.205Z,0.30
2023-01-13T00:23:12.529Z,0.30
2023-01-13T00:25:40.908Z,0.30
2023-01-13T00:28:10.112Z,0.30
2023-01-13T00:30:38.527Z,0.30
2023-01-13T00:33:06.872Z,0.30
2023-01-13T00:35:36.602Z,0.40
2023-01-13T00:38:04.893Z,0.40
2023-01-13T00:40:33.226Z,0.43
2023-01-13T00:43:19.414Z,0.40
2023-01-13T00:45:47.764Z,0.30
2023-01-13T00:48:16.083Z,0.40
2023-01-13T00:50:45.889Z,0.30
2023-01-13T00:53:14.959Z,0.40
2023-01-13T00:55:43.256Z,0.40
2023-01-13T00:58:11.551Z,0.30
2023-01-13T01:00:39.947Z,0.33
2023-01-13T01:03:12.343Z,0.30
2023-01-13T01:05:41.169Z,0.40
2023-01-13T01:08:10.917Z,0.40
2023-01-13T01:10:39.267Z,0.40
2023-01-13T01:13:07.615Z,0.30
2023-01-13T01:15:35.979Z,0.30
2023-01-13T01:18:04.477Z,0.30
2023-01-13T01:20:32.866Z,0.37
2023-01-13T01:23:01.260Z,0.40
2023-01-13T01:25:30.928Z,0.50
2023-01-13T01:27:59.354Z,0.50
2023-01-13T01:30:27.910Z,0.50
2023-01-13T01:32:57.329Z,0.50
2023-01-13T01:35:26.027Z,0.70
2023-01-13T01:37:54.399Z,0.60
2023-01-13T01:40:22.711Z,0.60
2023-01-13T01:43:09.994Z,0.50
2023-01-13T01:45:38.325Z,0.60
2023-01-13T01:48:08.580Z,0.60
2023-01-13T01:50:38.075Z,0.97
2023-01-13T01:53:13.582Z,0.60
2023-01-13T01:55:42.403Z,0.50
2023-01-13T01:58:16.224Z,0.50
2023-01-13T02:00:44.661Z,0.70
2023-01-13T02:03:13.296Z,0.50
2023-01-13T02:05:41.698Z,0.40
2023-01-13T02:08:12.415Z,0.50
2023-01-13T02:10:41.623Z,0.60
2023-01-13T02:13:14.386Z,0.67
2023-01-13T02:15:48.238Z,0.50
2023-01-13T02:18:39.594Z,0.53
2023-01-13T02:21:36.942Z,0.93
2023-01-13T02:24:56.098Z,0.53
2023-01-13T02:28:00.766Z,0.97
2023-01-13T02:31:04.376Z,0.60
2023-01-13T02:33:40.217Z,0.70
2023-01-13T02:36:16.851Z,0.50
2023-01-13T02:38:52.658Z,0.50
2023-01-13T02:41:45.203Z,0.70
2023-01-13T02:44:17.826Z,0.60
2023-01-13T02:46:54.283Z,0.50
2023-01-13T02:49:33.158Z,0.57
2023-01-13T02:52:08.416Z,0.40
2023-01-13T02:54:38.980Z,0.53
2023-01-13T02:57:09.809Z,0.67
2023-01-13T02:59:40.692Z,0.60
2023-01-13T03:02:14.071Z,0.50
2023-01-13T03:04:54.111Z,0.90
2023-01-13T03:07:53.434Z,0.60
2023-01-13T03:10:32.294Z,0.90
2023-01-13T03:13:10.478Z,0.60
2023-01-13T03:15:49.092Z,0.70
2023-01-13T03:18:33.556Z,0.87
2023-01-13T03:21:07.302Z,1.20
2023-01-13T03:23:43.350Z,0.80
2023-01-13T03:26:16.956Z,0.80
2023-01-13T03:28:50.127Z,0.60
2023-01-13T03:31:25.576Z,0.90
2023-01-13T03:34:01.173Z,1.00
2023-01-13T03:36:31.780Z,1.80
2023-01-13T03:39:04.955Z,2.17
2023-01-13T03:41:37.687Z,1.30
2023-01-13T03:44:24.348Z,1.00
2023-01-13T03:47:03.921Z,1.67
2023-01-13T03:49:39.982Z,1.10
2023-01-13T03:52:12.403Z,1.57
2023-01-13T03:54:47.634Z,1.30
2023-01-13T03:57:19.055Z,0.97
2023-01-13T03:59:51.996Z,1.00
2023-01-13T04:02:28.075Z,1.77
2023-01-13T04:05:00.829Z,1.80
2023-01-13T04:07:40.480Z,1.30
2023-01-13T04:10:11.059Z,1.60
2023-01-13T04:13:04.257Z,1.50
2023-01-13T04:15:35.987Z,2.27
2023-01-13T04:18:12.456Z,1.97
2023-01-13T04:20:43.501Z,1.90
2023-01-13T04:23:13.538Z,1.90
2023-01-13T04:25:42.468Z,1.73
2023-01-13T04:28:11.223Z,2.17
2023-01-13T04:30:39.820Z,2.00
2023-01-13T04:33:08.098Z,1.70
2023-01-13T04:35:37.124Z,1.53
2023-01-13T04:38:09.564Z,2.27
2023-01-13T04:40:38.033Z,1.90
2023-01-13T04:43:06.657Z,2.27
2023-01-13T04:45:35.389Z,2.00
2023-01-13T04:48:03.708Z,2.10
2023-01-13T04:50:31.941Z,1.80
2023-01-13T04:53:01.107Z,2.40
2023-01-13T04:55:31.729Z,1.83
2023-01-13T04:58:04.221Z,2.40
2023-01-13T05:00:32.470Z,2.23
2023-01-13T05:03:00.753Z,1.67
2023-01-13T05:05:29.783Z,2.20
2023-01-13T05:07:58.384Z,2.20
2023-01-13T05:10:27.187Z,2.07
2023-01-13T05:13:14.433Z,2.47
2023-01-13T05:16:00.951Z,3.30
2023-01-13T05:18:30.615Z,1.80
2023-01-13T05:20:58.941Z,2.70
2023-01-13T05:23:44.759Z,2.70
2023-01-13T05:26:12.991Z,2.93
2023-01-13T05:28:42.589Z,1.90
2023-01-13T05:31:12.040Z,2.60
2023-01-13T05:33:40.309Z,2.10
2023-01-13T05:36:09.436Z,2.67
2023-01-13T05:38:37.688Z,1.83
2023-01-13T05:41:23.981Z,1.73
2023-01-13T05:43:54.518Z,1.80
2023-01-13T05:46:22.723Z,1.60
2023-01-13T05:48:50.989Z,1.70
2023-01-13T05:51:22.409Z,2.27
2023-01-13T05:53:50.564Z,1.80
2023-01-13T05:56:18.714Z,1.40
2023-01-13T05:58:46.842Z,1.77
2023-01-13T06:01:16.451Z,1.63
2023-01-13T06:03:44.663Z,1.33
2023-01-13T06:06:12.799Z,0.93
2023-01-13T06:08:40.921Z,1.00
2023-01-13T06:11:09.048Z,1.00
2023-01-13T06:13:37.312Z,1.20
2023-01-13T06:16:06.027Z,1.10
2023-01-13T06:18:35.594Z,1.03
2023-01-13T06:21:04.761Z,1.30
2023-01-13T06:23:35.244Z,1.03
2023-01-13T06:26:09.300Z,1.00
2023-01-13T06:28:37.520Z,1.30
2023-01-13T06:31:08.376Z,1.87
2023-01-13T06:33:39.969Z,1.30
2023-01-13T06:36:13.571Z,2.83
2023-01-13T06:38:45.263Z,0.87
2023-01-13T06:41:13.879Z,1.07
2023-01-13T06:43:41.323Z,1.40
2023-01-13T06:46:09.642Z,1.07
2023-01-13T06:48:39.254Z,0.83
2023-01-13T06:51:09.563Z,0.83
2023-01-13T06:53:37.803Z,0.70
2023-01-13T06:56:06.292Z,1.00
2023-01-13T06:58:34.537Z,1.53
2023-01-13T07:01:02.965Z,1.07
2023-01-13T07:03:31.372Z,1.13
2023-01-13T07:06:02.164Z,0.90
2023-01-13T07:08:30.377Z,1.13
2023-01-13T07:11:00.233Z,1.30
2023-01-13T07:13:46.240Z,0.80
2023-01-13T07:16:14.552Z,1.20
2023-01-13T07:18:42.749Z,1.07
2023-01-13T07:21:13.521Z,1.00
2023-01-13T07:23:42.937Z,0.80
2023-01-13T07:26:12.437Z,0.87
2023-01-13T07:28:40.881Z,0.70
2023-01-13T07:31:15.712Z,0.93
2023-01-13T07:33:44.067Z,0.77
2023-01-13T07:36:14.492Z,0.90
2023-01-13T07:38:44.431Z,0.83
2023-01-13T07:41:37.613Z,1.23
2023-01-13T07:44:06.259Z,0.83
2023-01-13T07:46:34.697Z,0.80
2023-01-13T07:49:03.024Z,1.20
2023-01-13T07:51:33.095Z,0.90
2023-01-13T07:54:01.406Z,0.67
2023-01-13T07:56:29.550Z,0.80
2023-01-13T07:58:59.532Z,0.67
2023-01-13T08:01:29.319Z,0.80
2023-01-13T08:03:58.766Z,0.80
2023-01-13T08:06:27.074Z,0.90
2023-01-13T08:08:56.596Z,0.70
2023-01-13T08:11:24.765Z,1.13
2023-01-13T08:13:57.425Z,1.03
2023-01-13T08:16:25.717Z,1.20
2023-01-13T08:18:53.957Z,1.10
2023-01-13T08:21:22.271Z,1.23
2023-01-13T08:23:50.528Z,1.60
2023-01-13T08:26:20.313Z,1.57
2023-01-13T08:28:48.428Z,1.23
2023-01-13T08:31:19.795Z,1.50
2023-01-13T08:33:48.284Z,1.50
2023-01-13T08:36:18.286Z,1.20
2023-01-13T08:38:46.555Z,1.40
2023-01-13T08:41:37.811Z,1.43
2023-01-13T08:44:09.159Z,1.47
2023-01-13T08:46:37.486Z,2.00
2023-01-13T08:49:05.823Z,2.40
2023-01-13T08:51:34.480Z,2.27
2023-01-13T08:54:03.158Z,1.73
2023-01-13T08:56:35.036Z,1.60
2023-01-13T08:59:03.769Z,2.10
2023-01-13T09:01:33.997Z,1.90
2023-01-13T09:04:02.509Z,2.20
2023-01-13T09:06:30.816Z,1.87
2023-01-13T09:08:59.584Z,2.47
2023-01-13T09:11:50.462Z,1.70
2023-01-13T09:14:20.273Z,2.27
2023-01-13T09:16:49.839Z,2.50
2023-01-13T09:19:18.095Z,1.70
2023-01-13T09:21:46.406Z,3.30
2023-01-13T09:24:14.662Z,1.23
2023-01-13T09:26:43.017Z,2.53
2023-01-13T09:29:11.342Z,1.93
2023-01-13T09:31:42.413Z,2.33
2023-01-13T09:34:34.244Z,2.57
2023-01-13T09:37:03.301Z,2.30
2023-01-13T09:39:35.200Z,2.53
2023-01-13T09:42:26.008Z,2.10
2023-01-13T09:44:59.919Z,1.67
2023-01-13T09:47:34.537Z,2.60
2023-01-13T09:50:18.174Z,2.23
2023-01-13T09:52:46.615Z,2.10
2023-01-13T09:55:17.488Z,2.60
2023-01-13T09:57:45.903Z,2.30
2023-01-13T10:00:18.930Z,1.93
2023-01-13T10:03:10.043Z,2.47
2023-01-13T10:05:41.955Z,3.00
2023-01-13T10:08:14.419Z,1.40
2023-01-13T10:10:46.146Z,1.80
2023-01-13T10:13:20.414Z,2.23
2023-01-13T10:15:58.349Z,1.83
2023-01-13T10:18:33.538Z,1.60
2023-01-13T10:21:16.079Z,1.90
2023-01-13T10:23:57.879Z,2.53
2023-01-13T10:26:45.865Z,3.00
2023-01-13T10:29:24.775Z,1.73
2023-01-13T10:31:54.233Z,2.40
2023-01-13T10:34:23.765Z,2.60
2023-01-13T10:37:03.098Z,2.13
2023-01-13T10:39:41.186Z,1.90
2023-01-13T10:42:14.750Z,2.23
2023-01-13T10:44:51.026Z,2.43
2023-01-13T10:47:25.748Z,2.10
2023-01-13T10:50:19.394Z,2.03
2023-01-13T10:53:01.261Z,1.93
2023-01-13T10:55:33.127Z,2.50
2023-01-13T10:58:14.620Z,1.70
2023-01-13T11:00:43.928Z,1.60
2023-01-13T11:03:18.322Z,3.13
2023-01-13T11:05:52.098Z,2.20
2023-01-13T11:08:24.437Z,2.70
2023-01-13T11:10:55.031Z,3.07
2023-01-13T11:13:32.160Z,3.10
2023-01-13T11:16:06.284Z,3.10
2023-01-13T11:18:43.599Z,2.90
2023-01-13T11:21:22.055Z,2.47
2023-01-13T11:24:04.753Z,2.07
2023-01-13T11:26:41.868Z,1.83
2023-01-13T11:29:15.989Z,2.20
2023-01-13T11:31:49.389Z,3.47
2023-01-13T11:34:28.218Z,2.00
2023-01-13T11:36:59.609Z,2.40
2023-01-13T11:39:35.192Z,2.40
2023-01-13T11:42:24.051Z,3.23
2023-01-13T11:45:02.836Z,2.20
2023-01-13T11:47:32.636Z,3.00
2023-01-13T11:50:02.329Z,2.30
2023-01-13T11:52:51.507Z,2.30
2023-01-13T11:55:35.734Z,2.50
2023-01-13T11:58:31.813Z,2.60
2023-01-13T12:01:10.154Z,2.10
2023-01-13T12:03:43.872Z,2.40
2023-01-13T12:06:23.882Z,2.37
2023-01-13T12:09:15.021Z,1.57
2023-01-13T12:12:14.012Z,2.17
2023-01-13T12:14:53.551Z,2.30
2023-01-13T12:17:31.547Z,1.80
2023-01-13T12:20:03.061Z,1.90
2023-01-13T12:22:35.975Z,1.60
2023-01-13T12:25:14.189Z,2.20
2023-01-13T12:27:47.738Z,1.97
2023-01-13T12:30:26.562Z,2.50
2023-01-13T12:32:58.056Z,1.57
2023-01-13T12:35:37.841Z,1.73
2023-01-13T12:38:12.630Z,1.67
2023-01-13T12:40:55.972Z,2.40
2023-01-13T12:43:43.431Z,1.90
2023-01-13T12:46:36.765Z,1.50
2023-01-13T12:49:18.766Z,2.10
2023-01-13T12:52:07.297Z,2.67
2023-01-13T12:55:09.779Z,2.67
2023-01-13T12:57:39.457Z,2.53
2023-01-13T13:00:17.711Z,2.20
2023-01-13T13:03:27.358Z,1.97
2023-01-13T13:06:10.692Z,2.20
2023-01-13T13:09:04.357Z,3.17
2023-01-13T13:11:59.860Z,2.23
2023-01-13T13:15:03.719Z,2.57
2023-01-13T13:18:01.080Z,3.00
2023-01-13T13:21:13.311Z,2.20
2023-01-13T13:23:50.650Z,2.03
2023-01-13T13:26:25.802Z,2.40
2023-01-13T13:29:26.379Z,2.90
2023-01-13T13:32:13.716Z,2.20
2023-01-13T13:34:52.450Z,2.30
2023-01-13T13:38:10.422Z,2.30
2023-01-13T13:40:59.368Z,1.83
2023-01-13T13:43:45.957Z,3.47
2023-01-13T13:46:46.941Z,1.97
2023-01-13T13:49:16.380Z,1.93
2023-01-13T13:51:50.058Z,2.13
2023-01-13T13:54:20.335Z,2.10
2023-01-13T13:56:50.249Z,2.00
2023-01-13T13:59:21.062Z,1.80
2023-01-13T14:01:53.542Z,1.80
2023-01-13T14:04:25.652Z,2.30
2023-01-13T14:06:57.502Z,1.97
2023-01-13T14:09:28.492Z,1.93
2023-01-13T14:11:59.205Z,2.13
2023-01-13T14:14:27.718Z,2.40
2023-01-13T14:16:56.175Z,3.30
2023-01-13T14:19:30.283Z,2.13
2023-01-13T14:22:02.022Z,2.23
2023-01-13T14:24:30.880Z,2.00
2023-01-13T14:27:14.861Z,2.03
2023-01-13T14:29:43.397Z,3.07
2023-01-13T14:32:16.130Z,2.40
2023-01-13T14:34:44.500Z,1.40
2023-01-13T14:37:31.721Z,1.80
2023-01-13T14:39:59.977Z,2.23
2023-01-13T14:42:29.683Z,2.00
2023-01-13T14:44:58.591Z,2.33
2023-01-13T14:47:29.088Z,1.90
2023-01-13T14:50:02.608Z,2.03
2023-01-13T14:52:34.246Z,1.90
2023-01-13T14:55:27.866Z,2.00
2023-01-13T14:58:28.322Z,1.97
2023-01-13T15:01:28.346Z,2.03
2023-01-13T15:04:11.649Z,1.67
2023-01-13T15:06:39.895Z,2.13
2023-01-13T15:09:14.683Z,2.50
2023-01-13T15:11:43.004Z,1.93
2023-01-13T15:14:12.280Z,2.60
2023-01-13T15:16:41.434Z,2.47
2023-01-13T15:19:10.886Z,2.30
2023-01-13T15:21:39.190Z,1.80
2023-01-13T15:24:07.949Z,2.10
2023-01-13T15:26:38.441Z,2.20
2023-01-13T15:29:14.230Z,1.90
2023-01-13T15:31:42.412Z,2.17
2023-01-13T15:34:10.659Z,1.90
2023-01-13T15:36:41.224Z,2.60
2023-01-13T15:39:13.305Z,1.90
2023-01-13T15:42:00.228Z,2.70
2023-01-13T15:44:54.642Z,3.53
2023-01-13T15:47:25.818Z,3.47
2023-01-13T15:49:54.955Z,3.20
2023-01-13T15:52:25.169Z,3.03
2023-01-13T15:54:54.425Z,3.10
2023-01-13T15:57:25.808Z,4.07
2023-01-13T15:59:58.752Z,3.20
2023-01-13T16:02:27.515Z,2.77
2023-01-13T16:04:55.833Z,2.70
2023-01-13T16:07:26.026Z,2.63
2023-01-13T16:09:54.359Z,3.43
2023-01-13T16:12:24.096Z,4.07
2023-01-13T16:14:52.261Z,2.20
2023-01-13T16:17:22.556Z,3.40
2023-01-13T16:19:51.083Z,3.73
2023-01-13T16:22:19.645Z,2.67
2023-01-13T16:24:49.243Z,2.87
2023-01-13T16:27:19.500Z,3.10
2023-01-13T16:29:49.811Z,2.07
2023-01-13T16:32:19.685Z,3.63
2023-01-13T16:34:48.134Z,4.17
2023-01-13T16:37:21.159Z,3.20
2023-01-13T16:39:49.431Z,3.37
2023-01-13T16:42:17.706Z,2.87
2023-01-13T16:44:46.597Z,4.07
2023-01-13T16:47:17.599Z,3.03
2023-01-13T16:49:46.482Z,3.90
2023-01-13T16:52:15.138Z,2.90
2023-01-13T16:54:43.376Z,2.93
2023-01-13T16:57:14.004Z,2.37
2023-01-13T16:59:42.272Z,2.40
2023-01-13T17:02:14.570Z,2.50
2023-01-13T17:04:44.263Z,2.00
2023-01-13T17:07:17.576Z,2.87
2023-01-13T17:09:45.897Z,2.90
2023-01-13T17:12:14.292Z,2.53
2023-01-13T17:14:43.402Z,2.40
2023-01-13T17:17:22.543Z,2.00
2023-01-13T17:19:52.661Z,2.40
2023-01-13T17:22:21.660Z,2.57
2023-01-13T17:24:49.987Z,2.40
2023-01-13T17:27:18.653Z,2.43
2023-01-13T17:29:47.413Z,2.23
2023-01-13T17:32:17.408Z,2.03
2023-01-13T17:34:46.065Z,2.57
2023-01-13T17:37:15.925Z,3.00
2023-01-13T17:39:46.379Z,2.40
2023-01-13T17:42:15.049Z,3.50
2023-01-13T17:44:43.382Z,2.93
2023-01-13T17:47:11.774Z,3.80
2023-01-13T17:49:40.044Z,3.30
2023-01-13T17:52:08.277Z,3.60
2023-01-13T17:54:37.927Z,3.93
2023-01-13T17:57:06.094Z,4.00
2023-01-13T17:59:34.571Z,4.10
2023-01-13T18:02:03.217Z,3.70
2023-01-13T18:04:31.769Z,2.90
2023-01-13T18:07:00.055Z,3.80
2023-01-13T18:09:28.386Z,4.20
2023-01-13T18:11:58.720Z,4.53
2023-01-13T18:14:28.141Z,4.80
2023-01-13T18:16:56.378Z,4.10
2023-01-13T18:19:42.361Z,5.40
2023-01-13T18:22:31.219Z,4.10
2023-01-13T18:25:16.911Z,3.10
2023-01-13T18:27:46.725Z,2.30
2023-01-13T18:30:15.429Z,3.20
2023-01-13T18:32:43.773Z,2.80
2023-01-13T18:35:12.401Z,2.80
2023-01-13T18:37:42.363Z,2.40
2023-01-13T18:40:12.978Z,2.57
2023-01-13T18:42:58.193Z,2.83
2023-01-13T18:45:30.102Z,2.90
2023-01-13T18:48:00.707Z,3.80
2023-01-13T18:50:29.489Z,1.90
2023-01-13T18:52:57.863Z,2.43
2023-01-13T18:55:28.383Z,2.30
2023-01-13T18:57:57.134Z,3.00
2023-01-13T19:00:27.177Z,2.87
2023-01-13T19:05:35.643Z,2.60
2023-01-13T19:08:04.501Z,2.50
2023-01-13T19:10:32.933Z,2.23
2023-01-13T19:13:02.261Z,2.60
2023-01-13T19:15:32.008Z,2.90
2023-01-13T19:18:00.572Z,3.20
2023-01-13T19:20:28.911Z,2.60
2023-01-13T19:22:57.155Z,4.60
2023-01-13T19:25:25.415Z,2.10
2023-01-13T19:27:53.707Z,2.00
2023-01-13T19:30:23.091Z,2.30
2023-01-13T19:32:52.625Z,3.57
2023-01-13T19:35:20.908Z,2.37
2023-01-13T19:37:49.492Z,2.97
2023-01-13T19:40:17.950Z,2.73
2023-01-13T19:43:04.574Z,2.20
2023-01-13T19:45:35.236Z,2.73
2023-01-13T19:48:06.595Z,2.30
2023-01-13T19:50:38.395Z,2.17
2023-01-13T19:53:07.058Z,2.73
2023-01-13T19:55:35.332Z,2.33
2023-01-13T19:58:05.069Z,3.17
2023-01-13T20:00:34.800Z,2.23
2023-01-13T20:03:08.037Z,3.63
2023-01-13T20:05:36.388Z,3.10
2023-01-13T20:08:04.748Z,2.57
2023-01-13T20:10:33.075Z,2.43
2023-01-13T20:13:01.394Z,2.60
2023-01-13T20:15:29.693Z,2.80
2023-01-13T20:17:58.725Z,2.93
2023-01-13T20:20:28.419Z,3.13
2023-01-13T20:22:58.155Z,3.60
2023-01-13T20:25:28.505Z,2.73
2023-01-13T20:27:57.549Z,2.43
2023-01-13T20:30:25.702Z,2.67
2023-01-13T20:32:53.936Z,2.43
2023-01-13T20:35:22.108Z,2.70
2023-01-13T20:37:51.693Z,1.90
2023-01-13T20:40:20.010Z,2.63
2023-01-13T20:42:47.222Z,3.67
2023-01-13T20:45:20.671Z,2.90
2023-01-13T20:47:49.164Z,3.57
2023-01-13T20:50:18.280Z,3.17
2023-01-13T20:52:47.233Z,3.10
2023-01-13T20:55:16.914Z,4.00
2023-01-13T20:57:48.470Z,2.60
2023-01-13T21:00:17.873Z,6.90
2023-01-13T21:02:46.204Z,5.60
2023-01-13T21:05:14.539Z,4.40
2023-01-13T21:07:42.763Z,2.87
2023-01-13T21:10:12.263Z,2.63
2023-01-13T21:12:59.459Z,4.17
2023-01-13T21:15:27.924Z,4.17
2023-01-13T21:18:13.580Z,3.70
2023-01-13T21:20:42.080Z,3.10
2023-01-13T21:23:11.810Z,3.40
2023-01-13T21:25:40.542Z,3.73
2023-01-13T21:28:12.219Z,3.83
2023-01-13T21:30:40.755Z,3.00
2023-01-13T21:33:12.388Z,3.20
2023-01-13T21:35:40.704Z,3.47
2023-01-13T21:38:10.553Z,3.07
2023-01-13T21:40:38.895Z,3.40
2023-01-13T21:43:31.154Z,3.83
2023-01-13T21:46:31.795Z,4.17
2023-01-13T21:49:00.197Z,3.30
2023-01-13T21:51:29.007Z,3.90
2023-01-13T21:53:58.002Z,3.43
2023-01-13T21:56:26.483Z,2.73
2023-01-13T21:58:57.036Z,3.70
2023-01-13T22:01:25.461Z,3.67
2023-01-13T22:04:11.389Z,3.23
2023-01-13T22:06:39.787Z,3.03
2023-01-13T22:09:08.291Z,3.67
2023-01-13T22:11:36.449Z,4.37
2023-01-13T22:14:10.055Z,4.50
2023-01-13T22:16:41.683Z,3.43
2023-01-13T22:19:11.738Z,3.33
2023-01-13T22:21:40.209Z,4.37
2023-01-13T22:24:08.854Z,3.70
2023-01-13T22:26:37.133Z,3.83
2023-01-13T22:29:06.680Z,3.20
2023-01-13T22:31:35.099Z,2.70
2023-01-13T22:34:03.408Z,3.70
2023-01-13T22:36:31.638Z,4.40
2023-01-13T22:39:01.291Z,3.47
2023-01-13T22:41:29.530Z,3.07
2023-01-13T22:43:57.792Z,5.13
2023-01-13T22:46:27.344Z,3.63
2023-01-13T22:48:55.869Z,3.20
2023-01-13T22:51:25.080Z,4.30
2023-01-13T22:53:53.523Z,4.13
2023-01-13T22:56:23.287Z,3.13
2023-01-13T22:58:54.355Z,3.47
2023-01-13T23:01:23.382Z,3.40
2023-01-13T23:03:53.697Z,4.50
2023-01-13T23:06:23.006Z,3.83
2023-01-13T23:08:51.848Z,3.00
2023-01-13T23:11:23.412Z,3.60
2023-01-13T23:13:51.824Z,3.27
2023-01-13T23:16:21.904Z,3.70
2023-01-13T23:18:51.705Z,3.57
2023-01-13T23:21:21.489Z,4.00
2023-01-13T23:23:50.420Z,3.80
2023-01-13T23:26:19.625Z,3.30
2023-01-13T23:28:48.539Z,3.97
2023-01-13T23:31:18.536Z,3.63
2023-01-13T23:33:47.246Z,4.20
2023-01-13T23:36:19.265Z,3.37
2023-01-13T23:38:48.012Z,3.50
2023-01-13T23:41:18.224Z,4.03
2023-01-13T23:43:51.831Z,3.43
2023-01-13T23:46:20.351Z,4.30
2023-01-13T23:48:49.622Z,3.20
2023-01-13T23:51:21.150Z,2.90
2023-01-13T23:53:51.003Z,2.90
2023-01-13T23:56:21.111Z,3.80
2023-01-13T23:58:50.047Z,3.70
